Hartland Corners, Vermont
Current Conditions -  °F | °C
As of 5:53 AM on Thursday 23 Oct 2014 (Local Time) from KLEB Reporting Station
Light Rain Light Rain  
Wind Chill: 45°   Ceiling: 1600
Heat Index: 49°   Visibility: 7mi
Dew Point: 45°   Wind: 10mph
Humidity: 86%   Direction: 10°N
Pressure: 29.86"   Gusts: NA
Location:  43.5466°N, 72.4252°W
Report Text: KLEB 230953Z AUTO 01009KT 7SM -RA BKN016 OVC024 09/07 A2986 RMK AO2 SLP112 P0006 T00940072
Loading
Personal Weather Stations






























Interactive Weather Map
Tropical Storm Tracking
New forecast layout! Learn more

10-Day Weather Forecast

Advertisements
Track Severe Weather on mobile